sensor_id;sensor_type;location;lat;lon;timestamp;P1;durP1;ratioP1;P2;durP2;ratioP2
3261;SDS011;1643;47.746;9.000;2023-05-19T00:01:58;1.87;;;1.60;;
3261;SDS011;1643;47.746;9.000;2023-05-19T00:04:29;1.90;;;1.80;;
3261;SDS011;1643;47.746;9.000;2023-05-19T00:06:55;2.20;;;1.60;;
3261;SDS011;1643;47.746;9.000;2023-05-19T00:09:23;1.63;;;1.53;;
3261;SDS011;1643;47.746;9.000;2023-05-19T00:11:49;6.43;;;2.10;;
3261;SDS011;1643;47.746;9.000;2023-05-19T00:14:15;1.70;;;1.60;;
3261;SDS011;1643;47.746;9.000;2023-05-19T00:16:41;2.37;;;2.00;;
3261;SDS011;1643;47.746;9.000;2023-05-19T00:19:07;2.63;;;1.80;;
3261;SDS011;1643;47.746;9.000;2023-05-19T00:21:34;2.50;;;2.00;;
3261;SDS011;1643;47.746;9.000;2023-05-19T00:24:02;2.13;;;1.83;;
3261;SDS011;1643;47.746;9.000;2023-05-19T00:26:27;2.13;;;1.60;;
3261;SDS011;1643;47.746;9.000;2023-05-19T00:28:53;3.07;;;2.10;;
3261;SDS011;1643;47.746;9.000;2023-05-19T00:31:19;2.70;;;2.13;;
3261;SDS011;1643;47.746;9.000;2023-05-19T00:33:44;2.20;;;1.63;;
3261;SDS011;1643;47.746;9.000;2023-05-19T00:36:10;2.40;;;1.80;;
3261;SDS011;1643;47.746;9.000;2023-05-19T00:38:36;3.97;;;2.10;;
3261;SDS011;1643;47.746;9.000;2023-05-19T00:41:05;2.13;;;1.80;;
3261;SDS011;1643;47.746;9.000;2023-05-19T00:43:31;4.40;;;1.77;;
3261;SDS011;1643;47.746;9.000;2023-05-19T00:45:58;2.63;;;1.77;;
3261;SDS011;1643;47.746;9.000;2023-05-19T00:48:24;2.03;;;1.93;;
3261;SDS011;1643;47.746;9.000;2023-05-19T00:50:51;2.73;;;1.60;;
3261;SDS011;1643;47.746;9.000;2023-05-19T00:53:19;1.90;;;1.70;;
3261;SDS011;1643;47.746;9.000;2023-05-19T00:55:44;3.00;;;1.70;;
3261;SDS011;1643;47.746;9.000;2023-05-19T00:58:11;2.83;;;1.73;;
3261;SDS011;1643;47.746;9.000;2023-05-19T01:00:38;1.67;;;1.57;;
3261;SDS011;1643;47.746;9.000;2023-05-19T01:03:05;1.70;;;1.60;;
3261;SDS011;1643;47.746;9.000;2023-05-19T01:05:40;3.13;;;2.00;;
3261;SDS011;1643;47.746;9.000;2023-05-19T01:08:08;2.33;;;2.10;;
3261;SDS011;1643;47.746;9.000;2023-05-19T01:10:34;2.90;;;1.77;;
3261;SDS011;1643;47.746;9.000;2023-05-19T01:13:01;2.20;;;1.70;;
3261;SDS011;1643;47.746;9.000;2023-05-19T01:15:27;1.70;;;1.60;;
3261;SDS011;1643;47.746;9.000;2023-05-19T01:18:04;2.20;;;2.03;;
3261;SDS011;1643;47.746;9.000;2023-05-19T01:20:40;1.93;;;1.80;;
3261;SDS011;1643;47.746;9.000;2023-05-19T01:26:16;2.83;;;2.00;;
3261;SDS011;1643;47.746;9.000;2023-05-19T01:31:48;6.00;;;1.83;;
3261;SDS011;1643;47.746;9.000;2023-05-19T01:34:15;1.67;;;1.50;;
3261;SDS011;1643;47.746;9.000;2023-05-19T01:36:42;2.50;;;2.00;;
3261;SDS011;1643;47.746;9.000;2023-05-19T01:39:09;2.97;;;2.17;;
3261;SDS011;1643;47.746;9.000;2023-05-19T01:41:37;5.00;;;2.23;;
3261;SDS011;1643;47.746;9.000;2023-05-19T01:44:05;2.10;;;1.93;;
3261;SDS011;1643;47.746;9.000;2023-05-19T01:46:32;2.10;;;1.90;;
3261;SDS011;1643;47.746;9.000;2023-05-19T01:48:58;2.00;;;1.90;;
3261;SDS011;1643;47.746;9.000;2023-05-19T01:51:24;3.07;;;2.23;;
3261;SDS011;1643;47.746;9.000;2023-05-19T01:53:49;2.23;;;2.00;;
3261;SDS011;1643;47.746;9.000;2023-05-19T01:56:16;2.50;;;2.30;;
3261;SDS011;1643;47.746;9.000;2023-05-19T01:58:51;2.10;;;1.90;;
3261;SDS011;1643;47.746;9.000;2023-05-19T02:12:28;3.60;;;2.00;;
3261;SDS011;1643;47.746;9.000;2023-05-19T02:17:50;2.07;;;1.83;;
3261;SDS011;1643;47.746;9.000;2023-05-19T02:20:19;2.70;;;2.07;;
3261;SDS011;1643;47.746;9.000;2023-05-19T02:22:47;2.00;;;1.80;;
3261;SDS011;1643;47.746;9.000;2023-05-19T02:25:13;2.70;;;2.10;;
3261;SDS011;1643;47.746;9.000;2023-05-19T02:27:39;3.37;;;2.10;;
3261;SDS011;1643;47.746;9.000;2023-05-19T02:30:06;2.10;;;1.90;;
3261;SDS011;1643;47.746;9.000;2023-05-19T02:32:33;4.00;;;2.00;;
3261;SDS011;1643;47.746;9.000;2023-05-19T02:34:59;2.20;;;2.00;;
3261;SDS011;1643;47.746;9.000;2023-05-19T02:37:24;2.93;;;2.37;;
3261;SDS011;1643;47.746;9.000;2023-05-19T02:39:52;2.73;;;2.17;;
3261;SDS011;1643;47.746;9.000;2023-05-19T02:42:18;1.90;;;1.80;;
3261;SDS011;1643;47.746;9.000;2023-05-19T02:44:44;2.53;;;2.30;;
3261;SDS011;1643;47.746;9.000;2023-05-19T02:47:10;2.40;;;2.20;;
3261;SDS011;1643;47.746;9.000;2023-05-19T02:49:36;3.57;;;2.17;;
3261;SDS011;1643;47.746;9.000;2023-05-19T02:52:02;2.40;;;2.13;;
3261;SDS011;1643;47.746;9.000;2023-05-19T02:54:29;3.00;;;1.90;;
3261;SDS011;1643;47.746;9.000;2023-05-19T02:56:55;4.10;;;2.47;;
3261;SDS011;1643;47.746;9.000;2023-05-19T02:59:21;3.10;;;2.10;;
3261;SDS011;1643;47.746;9.000;2023-05-19T03:01:47;2.37;;;1.97;;
3261;SDS011;1643;47.746;9.000;2023-05-19T03:04:13;4.40;;;2.17;;
3261;SDS011;1643;47.746;9.000;2023-05-19T03:06:38;3.87;;;2.50;;
3261;SDS011;1643;47.746;9.000;2023-05-19T03:09:04;4.60;;;2.20;;
3261;SDS011;1643;47.746;9.000;2023-05-19T03:11:30;3.40;;;2.30;;
3261;SDS011;1643;47.746;9.000;2023-05-19T03:13:56;2.40;;;2.20;;
3261;SDS011;1643;47.746;9.000;2023-05-19T03:16:22;2.67;;;2.27;;
3261;SDS011;1643;47.746;9.000;2023-05-19T03:18:48;3.00;;;2.70;;
3261;SDS011;1643;47.746;9.000;2023-05-19T03:21:14;2.67;;;2.40;;
3261;SDS011;1643;47.746;9.000;2023-05-19T03:23:40;2.80;;;2.23;;
3261;SDS011;1643;47.746;9.000;2023-05-19T03:26:06;4.87;;;2.40;;
3261;SDS011;1643;47.746;9.000;2023-05-19T03:28:31;3.20;;;2.30;;
3261;SDS011;1643;47.746;9.000;2023-05-19T03:30:57;2.33;;;2.13;;
3261;SDS011;1643;47.746;9.000;2023-05-19T03:33:23;2.03;;;1.83;;
3261;SDS011;1643;47.746;9.000;2023-05-19T03:35:48;2.87;;;2.47;;
3261;SDS011;1643;47.746;9.000;2023-05-19T03:38:14;3.73;;;2.37;;
3261;SDS011;1643;47.746;9.000;2023-05-19T03:40:40;2.50;;;2.30;;
3261;SDS011;1643;47.746;9.000;2023-05-19T03:43:05;4.63;;;2.93;;
3261;SDS011;1643;47.746;9.000;2023-05-19T03:45:32;2.23;;;2.00;;
3261;SDS011;1643;47.746;9.000;2023-05-19T03:47:57;2.60;;;2.20;;
3261;SDS011;1643;47.746;9.000;2023-05-19T03:50:23;3.53;;;2.60;;
3261;SDS011;1643;47.746;9.000;2023-05-19T03:52:48;3.00;;;2.60;;
3261;SDS011;1643;47.746;9.000;2023-05-19T03:55:14;3.30;;;2.40;;
3261;SDS011;1643;47.746;9.000;2023-05-19T03:57:40;3.37;;;3.07;;
3261;SDS011;1643;47.746;9.000;2023-05-19T04:00:07;3.37;;;3.00;;
3261;SDS011;1643;47.746;9.000;2023-05-19T04:02:35;2.43;;;2.20;;
3261;SDS011;1643;47.746;9.000;2023-05-19T04:05:00;2.80;;;2.50;;
3261;SDS011;1643;47.746;9.000;2023-05-19T04:07:28;4.70;;;3.10;;
3261;SDS011;1643;47.746;9.000;2023-05-19T04:09:55;4.90;;;2.50;;
3261;SDS011;1643;47.746;9.000;2023-05-19T04:12:21;2.60;;;2.40;;
3261;SDS011;1643;47.746;9.000;2023-05-19T04:14:47;7.77;;;2.70;;
3261;SDS011;1643;47.746;9.000;2023-05-19T04:17:12;6.60;;;3.10;;
3261;SDS011;1643;47.746;9.000;2023-05-19T04:19:38;3.20;;;2.90;;
3261;SDS011;1643;47.746;9.000;2023-05-19T04:22:04;3.47;;;2.80;;
3261;SDS011;1643;47.746;9.000;2023-05-19T04:24:30;3.13;;;2.80;;
3261;SDS011;1643;47.746;9.000;2023-05-19T04:26:55;2.87;;;2.60;;
3261;SDS011;1643;47.746;9.000;2023-05-19T04:29:26;3.20;;;2.50;;
3261;SDS011;1643;47.746;9.000;2023-05-19T04:31:56;4.17;;;3.00;;
3261;SDS011;1643;47.746;9.000;2023-05-19T04:34:22;3.50;;;3.20;;
3261;SDS011;1643;47.746;9.000;2023-05-19T04:36:47;4.30;;;3.13;;
3261;SDS011;1643;47.746;9.000;2023-05-19T04:39:13;4.47;;;2.80;;
3261;SDS011;1643;47.746;9.000;2023-05-19T04:41:39;3.20;;;2.90;;
3261;SDS011;1643;47.746;9.000;2023-05-19T04:44:08;3.07;;;2.77;;
3261;SDS011;1643;47.746;9.000;2023-05-19T04:46:34;3.83;;;3.03;;
3261;SDS011;1643;47.746;9.000;2023-05-19T04:49:00;6.03;;;3.10;;
3261;SDS011;1643;47.746;9.000;2023-05-19T04:51:26;3.30;;;2.83;;
3261;SDS011;1643;47.746;9.000;2023-05-19T04:53:55;4.43;;;3.70;;
3261;SDS011;1643;47.746;9.000;2023-05-19T04:56:21;3.87;;;3.00;;
3261;SDS011;1643;47.746;9.000;2023-05-19T04:58:47;3.50;;;3.10;;
3261;SDS011;1643;47.746;9.000;2023-05-19T05:01:13;5.20;;;2.80;;
3261;SDS011;1643;47.746;9.000;2023-05-19T05:03:39;4.20;;;2.93;;
3261;SDS011;1643;47.746;9.000;2023-05-19T05:06:08;5.20;;;3.63;;
3261;SDS011;1643;47.746;9.000;2023-05-19T05:08:34;7.27;;;3.87;;
3261;SDS011;1643;47.746;9.000;2023-05-19T05:11:01;3.53;;;2.90;;
3261;SDS011;1643;47.746;9.000;2023-05-19T05:13:27;3.50;;;3.20;;
3261;SDS011;1643;47.746;9.000;2023-05-19T05:15:53;4.43;;;3.43;;
3261;SDS011;1643;47.746;9.000;2023-05-19T05:18:20;5.20;;;3.23;;
3261;SDS011;1643;47.746;9.000;2023-05-19T05:20:46;7.97;;;3.33;;
3261;SDS011;1643;47.746;9.000;2023-05-19T05:23:12;5.47;;;3.40;;
3261;SDS011;1643;47.746;9.000;2023-05-19T05:25:39;4.93;;;3.60;;
3261;SDS011;1643;47.746;9.000;2023-05-19T05:28:05;11.30;;;4.07;;
3261;SDS011;1643;47.746;9.000;2023-05-19T05:30:32;6.00;;;3.67;;
3261;SDS011;1643;47.746;9.000;2023-05-19T05:32:58;9.70;;;4.60;;
3261;SDS011;1643;47.746;9.000;2023-05-19T05:35:24;4.00;;;3.60;;
3261;SDS011;1643;47.746;9.000;2023-05-19T05:37:49;4.97;;;3.47;;
3261;SDS011;1643;47.746;9.000;2023-05-19T05:40:15;5.03;;;3.90;;
3261;SDS011;1643;47.746;9.000;2023-05-19T05:42:41;8.53;;;3.30;;
3261;SDS011;1643;47.746;9.000;2023-05-19T05:45:07;8.93;;;4.03;;
3261;SDS011;1643;47.746;9.000;2023-05-19T05:47:33;5.20;;;3.33;;
3261;SDS011;1643;47.746;9.000;2023-05-19T05:50:02;4.40;;;3.17;;
3261;SDS011;1643;47.746;9.000;2023-05-19T05:52:29;4.53;;;3.70;;
3261;SDS011;1643;47.746;9.000;2023-05-19T05:54:56;4.77;;;3.90;;
3261;SDS011;1643;47.746;9.000;2023-05-19T05:57:22;7.77;;;4.07;;
3261;SDS011;1643;47.746;9.000;2023-05-19T05:59:47;10.10;;;5.30;;
3261;SDS011;1643;47.746;9.000;2023-05-19T06:02:14;5.57;;;4.13;;
3261;SDS011;1643;47.746;9.000;2023-05-19T06:04:41;5.23;;;3.53;;
3261;SDS011;1643;47.746;9.000;2023-05-19T06:07:07;10.57;;;5.03;;
3261;SDS011;1643;47.746;9.000;2023-05-19T06:09:33;5.30;;;3.60;;
3261;SDS011;1643;47.746;9.000;2023-05-19T06:11:59;8.27;;;3.70;;
3261;SDS011;1643;47.746;9.000;2023-05-19T06:14:24;6.30;;;3.70;;
3261;SDS011;1643;47.746;9.000;2023-05-19T06:16:50;8.23;;;3.87;;
3261;SDS011;1643;47.746;9.000;2023-05-19T06:19:17;5.57;;;3.80;;
3261;SDS011;1643;47.746;9.000;2023-05-19T06:21:43;6.53;;;4.20;;
3261;SDS011;1643;47.746;9.000;2023-05-19T06:24:09;7.20;;;4.07;;
3261;SDS011;1643;47.746;9.000;2023-05-19T06:26:35;6.73;;;3.93;;
3261;SDS011;1643;47.746;9.000;2023-05-19T06:29:00;5.67;;;3.50;;
3261;SDS011;1643;47.746;9.000;2023-05-19T06:31:27;8.13;;;3.70;;
3261;SDS011;1643;47.746;9.000;2023-05-19T06:33:52;6.47;;;4.20;;
3261;SDS011;1643;47.746;9.000;2023-05-19T06:36:18;8.77;;;3.60;;
3261;SDS011;1643;47.746;9.000;2023-05-19T06:38:44;4.23;;;3.30;;
3261;SDS011;1643;47.746;9.000;2023-05-19T06:41:09;5.50;;;4.00;;
3261;SDS011;1643;47.746;9.000;2023-05-19T06:43:35;4.83;;;4.23;;
3261;SDS011;1643;47.746;9.000;2023-05-19T06:46:00;7.63;;;4.20;;
3261;SDS011;1643;47.746;9.000;2023-05-19T06:48:26;4.93;;;3.70;;
3261;SDS011;1643;47.746;9.000;2023-05-19T06:50:52;6.80;;;3.87;;
3261;SDS011;1643;47.746;9.000;2023-05-19T06:53:18;8.23;;;3.83;;
3261;SDS011;1643;47.746;9.000;2023-05-19T06:55:44;5.43;;;4.50;;
3261;SDS011;1643;47.746;9.000;2023-05-19T06:58:10;8.13;;;4.07;;
3261;SDS011;1643;47.746;9.000;2023-05-19T07:00:36;6.73;;;3.93;;
3261;SDS011;1643;47.746;9.000;2023-05-19T07:03:01;11.70;;;4.90;;
3261;SDS011;1643;47.746;9.000;2023-05-19T07:05:27;4.90;;;3.67;;
3261;SDS011;1643;47.746;9.000;2023-05-19T07:07:53;5.50;;;4.13;;
3261;SDS011;1643;47.746;9.000;2023-05-19T07:10:18;5.40;;;3.63;;
3261;SDS011;1643;47.746;9.000;2023-05-19T07:12:45;7.23;;;4.40;;
3261;SDS011;1643;47.746;9.000;2023-05-19T07:15:11;7.70;;;4.00;;
3261;SDS011;1643;47.746;9.000;2023-05-19T07:17:37;5.13;;;3.90;;
3261;SDS011;1643;47.746;9.000;2023-05-19T07:20:02;7.43;;;4.40;;
3261;SDS011;1643;47.746;9.000;2023-05-19T07:22:31;7.63;;;3.83;;
3261;SDS011;1643;47.746;9.000;2023-05-19T07:25:00;5.03;;;3.43;;
3261;SDS011;1643;47.746;9.000;2023-05-19T07:27:25;5.90;;;4.03;;
3261;SDS011;1643;47.746;9.000;2023-05-19T07:29:51;4.80;;;3.67;;
3261;SDS011;1643;47.746;9.000;2023-05-19T07:32:17;5.57;;;3.50;;
3261;SDS011;1643;47.746;9.000;2023-05-19T07:34:42;5.83;;;3.60;;
3261;SDS011;1643;47.746;9.000;2023-05-19T07:37:08;3.47;;;3.17;;
3261;SDS011;1643;47.746;9.000;2023-05-19T07:39:34;5.03;;;4.00;;
3261;SDS011;1643;47.746;9.000;2023-05-19T07:42:00;8.40;;;3.80;;
3261;SDS011;1643;47.746;9.000;2023-05-19T07:44:26;6.57;;;4.37;;
3261;SDS011;1643;47.746;9.000;2023-05-19T07:46:52;6.03;;;3.93;;
3261;SDS011;1643;47.746;9.000;2023-05-19T07:49:18;5.23;;;3.90;;
3261;SDS011;1643;47.746;9.000;2023-05-19T07:51:44;5.50;;;3.93;;
3261;SDS011;1643;47.746;9.000;2023-05-19T07:54:10;4.87;;;3.50;;
3261;SDS011;1643;47.746;9.000;2023-05-19T07:56:35;7.03;;;3.63;;
3261;SDS011;1643;47.746;9.000;2023-05-19T07:59:02;5.67;;;3.67;;
3261;SDS011;1643;47.746;9.000;2023-05-19T08:01:28;7.00;;;4.30;;
3261;SDS011;1643;47.746;9.000;2023-05-19T08:03:54;5.50;;;4.00;;
3261;SDS011;1643;47.746;9.000;2023-05-19T08:06:20;4.80;;;3.90;;
3261;SDS011;1643;47.746;9.000;2023-05-19T08:08:46;5.00;;;3.57;;
3261;SDS011;1643;47.746;9.000;2023-05-19T08:11:12;7.77;;;4.33;;
3261;SDS011;1643;47.746;9.000;2023-05-19T08:13:37;8.93;;;3.60;;
3261;SDS011;1643;47.746;9.000;2023-05-19T08:16:03;4.30;;;3.23;;
3261;SDS011;1643;47.746;9.000;2023-05-19T08:18:29;5.60;;;3.00;;
3261;SDS011;1643;47.746;9.000;2023-05-19T08:20:55;15.70;;;4.90;;
3261;SDS011;1643;47.746;9.000;2023-05-19T08:23:21;5.80;;;3.30;;
3261;SDS011;1643;47.746;9.000;2023-05-19T08:25:47;5.80;;;4.00;;
3261;SDS011;1643;47.746;9.000;2023-05-19T08:28:13;7.20;;;3.57;;
3261;SDS011;1643;47.746;9.000;2023-05-19T08:30:38;15.17;;;4.87;;
3261;SDS011;1643;47.746;9.000;2023-05-19T08:33:04;4.50;;;3.80;;
3261;SDS011;1643;47.746;9.000;2023-05-19T08:35:30;5.00;;;3.43;;
3261;SDS011;1643;47.746;9.000;2023-05-19T08:37:55;4.03;;;3.73;;
3261;SDS011;1643;47.746;9.000;2023-05-19T08:40:21;7.07;;;4.17;;
3261;SDS011;1643;47.746;9.000;2023-05-19T08:42:47;6.90;;;3.30;;
3261;SDS011;1643;47.746;9.000;2023-05-19T08:45:13;4.70;;;3.30;;
3261;SDS011;1643;47.746;9.000;2023-05-19T08:47:40;11.17;;;4.33;;
3261;SDS011;1643;47.746;9.000;2023-05-19T08:50:06;9.33;;;3.83;;
3261;SDS011;1643;47.746;9.000;2023-05-19T08:52:40;4.20;;;3.37;;
3261;SDS011;1643;47.746;9.000;2023-05-19T08:55:12;4.77;;;3.47;;
3261;SDS011;1643;47.746;9.000;2023-05-19T08:57:46;5.40;;;3.50;;
3261;SDS011;1643;47.746;9.000;2023-05-19T09:00:13;5.33;;;3.57;;
3261;SDS011;1643;47.746;9.000;2023-05-19T09:02:40;4.47;;;3.20;;
3261;SDS011;1643;47.746;9.000;2023-05-19T09:05:07;5.03;;;3.83;;
3261;SDS011;1643;47.746;9.000;2023-05-19T09:07:34;4.33;;;3.40;;
3261;SDS011;1643;47.746;9.000;2023-05-19T09:10:01;4.33;;;3.50;;
3261;SDS011;1643;47.746;9.000;2023-05-19T09:12:28;5.87;;;3.90;;
3261;SDS011;1643;47.746;9.000;2023-05-19T09:14:53;5.93;;;3.40;;
3261;SDS011;1643;47.746;9.000;2023-05-19T09:17:19;8.97;;;3.70;;
3261;SDS011;1643;47.746;9.000;2023-05-19T09:19:45;5.70;;;3.00;;
3261;SDS011;1643;47.746;9.000;2023-05-19T09:22:17;4.87;;;3.63;;
3261;SDS011;1643;47.746;9.000;2023-05-19T09:24:43;4.43;;;4.00;;
3261;SDS011;1643;47.746;9.000;2023-05-19T09:27:09;4.50;;;3.30;;
3261;SDS011;1643;47.746;9.000;2023-05-19T09:29:38;7.77;;;3.60;;
3261;SDS011;1643;47.746;9.000;2023-05-19T09:32:04;7.70;;;3.30;;
3261;SDS011;1643;47.746;9.000;2023-05-19T09:34:30;5.63;;;3.70;;
3261;SDS011;1643;47.746;9.000;2023-05-19T09:36:56;6.03;;;3.80;;
3261;SDS011;1643;47.746;9.000;2023-05-19T09:39:24;3.87;;;3.10;;
3261;SDS011;1643;47.746;9.000;2023-05-19T09:41:50;3.63;;;3.33;;
3261;SDS011;1643;47.746;9.000;2023-05-19T09:44:20;4.87;;;3.57;;
3261;SDS011;1643;47.746;9.000;2023-05-19T09:46:48;5.40;;;2.80;;
3261;SDS011;1643;47.746;9.000;2023-05-19T09:49:17;4.23;;;3.43;;
3261;SDS011;1643;47.746;9.000;2023-05-19T09:52:05;3.27;;;2.80;;
3261;SDS011;1643;47.746;9.000;2023-05-19T09:54:32;5.03;;;3.03;;
3261;SDS011;1643;47.746;9.000;2023-05-19T09:56:59;4.97;;;3.20;;
3261;SDS011;1643;47.746;9.000;2023-05-19T09:59:27;3.00;;;2.80;;
3261;SDS011;1643;47.746;9.000;2023-05-19T10:01:54;3.80;;;3.17;;
3261;SDS011;1643;47.746;9.000;2023-05-19T10:04:21;3.43;;;2.70;;
3261;SDS011;1643;47.746;9.000;2023-05-19T10:06:49;3.93;;;3.23;;
3261;SDS011;1643;47.746;9.000;2023-05-19T10:09:24;4.97;;;3.30;;
3261;SDS011;1643;47.746;9.000;2023-05-19T10:11:52;4.10;;;2.90;;
3261;SDS011;1643;47.746;9.000;2023-05-19T10:14:22;3.60;;;2.57;;
3261;SDS011;1643;47.746;9.000;2023-05-19T10:16:52;5.67;;;3.60;;
3261;SDS011;1643;47.746;9.000;2023-05-19T10:19:19;6.10;;;4.17;;
3261;SDS011;1643;47.746;9.000;2023-05-19T10:21:49;5.07;;;2.90;;
3261;SDS011;1643;47.746;9.000;2023-05-19T10:24:16;3.80;;;3.00;;
3261;SDS011;1643;47.746;9.000;2023-05-19T10:26:46;5.33;;;3.40;;
3261;SDS011;1643;47.746;9.000;2023-05-19T10:29:16;4.77;;;3.13;;
3261;SDS011;1643;47.746;9.000;2023-05-19T10:31:51;7.53;;;3.57;;
3261;SDS011;1643;47.746;9.000;2023-05-19T10:34:22;6.10;;;3.87;;
3261;SDS011;1643;47.746;9.000;2023-05-19T10:40:11;4.83;;;3.77;;
3261;SDS011;1643;47.746;9.000;2023-05-19T10:45:22;3.87;;;2.80;;
3261;SDS011;1643;47.746;9.000;2023-05-19T10:47:53;9.80;;;4.00;;
3261;SDS011;1643;47.746;9.000;2023-05-19T10:50:19;6.00;;;3.30;;
3261;SDS011;1643;47.746;9.000;2023-05-19T10:52:44;4.17;;;3.53;;
3261;SDS011;1643;47.746;9.000;2023-05-19T10:55:17;4.60;;;3.70;;
3261;SDS011;1643;47.746;9.000;2023-05-19T10:58:10;4.30;;;3.77;;
3261;SDS011;1643;47.746;9.000;2023-05-19T11:00:36;12.40;;;3.67;;
3261;SDS011;1643;47.746;9.000;2023-05-19T11:03:16;5.30;;;4.33;;
3261;SDS011;1643;47.746;9.000;2023-05-19T11:05:47;6.90;;;3.73;;
3261;SDS011;1643;47.746;9.000;2023-05-19T11:08:16;4.93;;;3.60;;
3261;SDS011;1643;47.746;9.000;2023-05-19T11:11:19;5.10;;;3.60;;
3261;SDS011;1643;47.746;9.000;2023-05-19T11:13:54;4.30;;;3.87;;
3261;SDS011;1643;47.746;9.000;2023-05-19T11:16:26;9.33;;;4.33;;
3261;SDS011;1643;47.746;9.000;2023-05-19T11:18:54;4.97;;;4.27;;
3261;SDS011;1643;47.746;9.000;2023-05-19T11:21:20;6.43;;;4.43;;
3261;SDS011;1643;47.746;9.000;2023-05-19T11:23:46;5.27;;;4.33;;
3261;SDS011;1643;47.746;9.000;2023-05-19T11:26:12;6.70;;;4.53;;
3261;SDS011;1643;47.746;9.000;2023-05-19T11:28:37;4.43;;;4.03;;
3261;SDS011;1643;47.746;9.000;2023-05-19T11:31:04;7.70;;;4.20;;
3261;SDS011;1643;47.746;9.000;2023-05-19T11:33:34;4.53;;;3.80;;
3261;SDS011;1643;47.746;9.000;2023-05-19T11:36:00;4.20;;;3.80;;
3261;SDS011;1643;47.746;9.000;2023-05-19T11:38:28;5.87;;;4.10;;
3261;SDS011;1643;47.746;9.000;2023-05-19T11:40:56;5.43;;;4.00;;
3261;SDS011;1643;47.746;9.000;2023-05-19T11:43:22;5.93;;;3.57;;
3261;SDS011;1643;47.746;9.000;2023-05-19T11:45:49;4.60;;;4.03;;
3261;SDS011;1643;47.746;9.000;2023-05-19T11:48:15;9.37;;;4.90;;
3261;SDS011;1643;47.746;9.000;2023-05-19T11:50:41;10.80;;;5.60;;
3261;SDS011;1643;47.746;9.000;2023-05-19T11:53:07;5.43;;;3.70;;
3261;SDS011;1643;47.746;9.000;2023-05-19T11:55:40;4.40;;;3.87;;
3261;SDS011;1643;47.746;9.000;2023-05-19T11:58:07;4.57;;;3.93;;
3261;SDS011;1643;47.746;9.000;2023-05-19T12:00:34;4.53;;;3.60;;
3261;SDS011;1643;47.746;9.000;2023-05-19T12:03:04;4.43;;;3.60;;
3261;SDS011;1643;47.746;9.000;2023-05-19T12:05:30;6.33;;;3.67;;
3261;SDS011;1643;47.746;9.000;2023-05-19T12:07:56;4.73;;;3.87;;
3261;SDS011;1643;47.746;9.000;2023-05-19T12:10:30;8.87;;;4.60;;
3261;SDS011;1643;47.746;9.000;2023-05-19T12:12:58;5.20;;;3.73;;
3261;SDS011;1643;47.746;9.000;2023-05-19T12:15:24;5.47;;;3.80;;
3261;SDS011;1643;47.746;9.000;2023-05-19T12:17:54;11.30;;;3.90;;
3261;SDS011;1643;47.746;9.000;2023-05-19T12:20:21;3.43;;;3.13;;
3261;SDS011;1643;47.746;9.000;2023-05-19T12:22:48;3.50;;;3.20;;
3261;SDS011;1643;47.746;9.000;2023-05-19T12:25:14;3.70;;;2.90;;
3261;SDS011;1643;47.746;9.000;2023-05-19T12:27:41;3.30;;;2.50;;
3261;SDS011;1643;47.746;9.000;2023-05-19T12:30:07;4.20;;;3.27;;
3261;SDS011;1643;47.746;9.000;2023-05-19T12:32:33;4.40;;;3.40;;
3261;SDS011;1643;47.746;9.000;2023-05-19T12:35:03;3.70;;;2.80;;
3261;SDS011;1643;47.746;9.000;2023-05-19T12:37:30;3.40;;;2.63;;
3261;SDS011;1643;47.746;9.000;2023-05-19T12:39:59;3.53;;;3.03;;
3261;SDS011;1643;47.746;9.000;2023-05-19T12:42:27;4.03;;;2.60;;
3261;SDS011;1643;47.746;9.000;2023-05-19T12:44:55;3.30;;;2.87;;
3261;SDS011;1643;47.746;9.000;2023-05-19T12:47:27;4.43;;;3.57;;
3261;SDS011;1643;47.746;9.000;2023-05-19T12:50:03;2.60;;;2.37;;
3261;SDS011;1643;47.746;9.000;2023-05-19T12:52:32;3.10;;;2.67;;
3261;SDS011;1643;47.746;9.000;2023-05-19T12:55:04;6.40;;;2.80;;
3261;SDS011;1643;47.746;9.000;2023-05-19T12:57:34;4.50;;;3.00;;
3261;SDS011;1643;47.746;9.000;2023-05-19T13:00:14;3.10;;;2.80;;
3261;SDS011;1643;47.746;9.000;2023-05-19T13:03:01;2.50;;;2.30;;
3261;SDS011;1643;47.746;9.000;2023-05-19T13:05:32;4.00;;;2.87;;
3261;SDS011;1643;47.746;9.000;2023-05-19T13:08:00;2.60;;;2.27;;
3261;SDS011;1643;47.746;9.000;2023-05-19T13:10:30;4.70;;;2.80;;
3261;SDS011;1643;47.746;9.000;2023-05-19T13:12:57;6.00;;;3.50;;
3261;SDS011;1643;47.746;9.000;2023-05-19T13:15:24;3.30;;;3.00;;
3261;SDS011;1643;47.746;9.000;2023-05-19T13:17:52;3.23;;;2.73;;
3261;SDS011;1643;47.746;9.000;2023-05-19T13:20:21;3.73;;;2.97;;
3261;SDS011;1643;47.746;9.000;2023-05-19T13:22:47;3.90;;;2.90;;
3261;SDS011;1643;47.746;9.000;2023-05-19T13:25:14;4.80;;;3.10;;
3261;SDS011;1643;47.746;9.000;2023-05-19T13:27:40;4.00;;;3.63;;
3261;SDS011;1643;47.746;9.000;2023-05-19T13:30:07;8.40;;;3.80;;
3261;SDS011;1643;47.746;9.000;2023-05-19T13:32:33;6.20;;;3.60;;
3261;SDS011;1643;47.746;9.000;2023-05-19T13:34:59;4.00;;;3.70;;
3261;SDS011;1643;47.746;9.000;2023-05-19T13:37:25;4.07;;;3.77;;
3261;SDS011;1643;47.746;9.000;2023-05-19T13:39:52;4.40;;;3.53;;
3261;SDS011;1643;47.746;9.000;2023-05-19T13:42:17;4.40;;;3.60;;
3261;SDS011;1643;47.746;9.000;2023-05-19T13:44:44;4.57;;;3.40;;
3261;SDS011;1643;47.746;9.000;2023-05-19T13:47:10;4.23;;;3.83;;
3261;SDS011;1643;47.746;9.000;2023-05-19T13:49:35;4.00;;;3.70;;
3261;SDS011;1643;47.746;9.000;2023-05-19T13:52:01;6.37;;;3.67;;
3261;SDS011;1643;47.746;9.000;2023-05-19T13:54:27;3.63;;;3.33;;
3261;SDS011;1643;47.746;9.000;2023-05-19T13:56:53;4.23;;;3.80;;
3261;SDS011;1643;47.746;9.000;2023-05-19T13:59:18;6.43;;;4.80;;
3261;SDS011;1643;47.746;9.000;2023-05-19T14:01:47;4.03;;;3.37;;
3261;SDS011;1643;47.746;9.000;2023-05-19T14:04:14;4.50;;;3.73;;
3261;SDS011;1643;47.746;9.000;2023-05-19T14:06:41;5.53;;;4.23;;
3261;SDS011;1643;47.746;9.000;2023-05-19T14:09:06;5.00;;;4.10;;
3261;SDS011;1643;47.746;9.000;2023-05-19T14:11:32;8.50;;;4.57;;
3261;SDS011;1643;47.746;9.000;2023-05-19T14:13:58;7.00;;;4.30;;
3261;SDS011;1643;47.746;9.000;2023-05-19T14:16:24;5.80;;;4.13;;
3261;SDS011;1643;47.746;9.000;2023-05-19T14:18:51;5.73;;;3.60;;
3261;SDS011;1643;47.746;9.000;2023-05-19T14:21:16;4.63;;;3.90;;
3261;SDS011;1643;47.746;9.000;2023-05-19T14:23:42;3.93;;;3.60;;
3261;SDS011;1643;47.746;9.000;2023-05-19T14:26:08;5.37;;;4.43;;
3261;SDS011;1643;47.746;9.000;2023-05-19T14:28:34;7.80;;;5.27;;
3261;SDS011;1643;47.746;9.000;2023-05-19T14:30:59;6.97;;;4.63;;
3261;SDS011;1643;47.746;9.000;2023-05-19T14:33:25;4.67;;;4.17;;
3261;SDS011;1643;47.746;9.000;2023-05-19T14:35:51;7.43;;;3.73;;
3261;SDS011;1643;47.746;9.000;2023-05-19T14:38:17;3.70;;;3.40;;
3261;SDS011;1643;47.746;9.000;2023-05-19T14:40:43;5.70;;;4.57;;
3261;SDS011;1643;47.746;9.000;2023-05-19T14:43:09;6.10;;;4.60;;
3261;SDS011;1643;47.746;9.000;2023-05-19T14:45:35;6.00;;;4.17;;
3261;SDS011;1643;47.746;9.000;2023-05-19T14:48:02;11.37;;;6.00;;
3261;SDS011;1643;47.746;9.000;2023-05-19T14:50:27;7.23;;;4.37;;
3261;SDS011;1643;47.746;9.000;2023-05-19T14:52:53;5.70;;;4.20;;
3261;SDS011;1643;47.746;9.000;2023-05-19T14:55:18;4.93;;;4.43;;
3261;SDS011;1643;47.746;9.000;2023-05-19T14:57:44;4.20;;;3.80;;
3261;SDS011;1643;47.746;9.000;2023-05-19T15:00:10;5.30;;;4.20;;
3261;SDS011;1643;47.746;9.000;2023-05-19T15:02:36;6.70;;;4.60;;
3261;SDS011;1643;47.746;9.000;2023-05-19T15:05:02;7.90;;;4.80;;
3261;SDS011;1643;47.746;9.000;2023-05-19T15:07:28;5.27;;;3.90;;
3261;SDS011;1643;47.746;9.000;2023-05-19T15:09:53;5.70;;;4.80;;
3261;SDS011;1643;47.746;9.000;2023-05-19T15:12:19;6.43;;;3.70;;
3261;SDS011;1643;47.746;9.000;2023-05-19T15:14:45;5.30;;;4.73;;
3261;SDS011;1643;47.746;9.000;2023-05-19T15:17:11;6.13;;;4.00;;
3261;SDS011;1643;47.746;9.000;2023-05-19T15:19:36;3.87;;;3.43;;
3261;SDS011;1643;47.746;9.000;2023-05-19T15:22:02;4.17;;;3.77;;
3261;SDS011;1643;47.746;9.000;2023-05-19T15:24:28;4.10;;;3.70;;
3261;SDS011;1643;47.746;9.000;2023-05-19T15:26:54;4.50;;;4.10;;
3261;SDS011;1643;47.746;9.000;2023-05-19T15:29:19;4.63;;;4.10;;
3261;SDS011;1643;47.746;9.000;2023-05-19T15:31:48;5.27;;;4.30;;
3261;SDS011;1643;47.746;9.000;2023-05-19T15:34:15;4.37;;;3.93;;
3261;SDS011;1643;47.746;9.000;2023-05-19T15:36:40;4.33;;;3.97;;
3261;SDS011;1643;47.746;9.000;2023-05-19T15:39:06;4.13;;;3.73;;
3261;SDS011;1643;47.746;9.000;2023-05-19T15:41:32;4.03;;;3.73;;